Hlavní strana
METAR-TAF:

METAR-TAF

Letiště :

Horta, Azory, Portugalsko

zeměpisná šířka: 38-31N, zeměpisná délka: 028-43W, výška: 40 m

Aktuální stav počasí

Zpráva byla vytvořena před 25 minutami, v 19:00 UTC
Jihojihovýchodní vítr 13 kt
Teplota 18°C
Vlhkost vzduchu 88%
Tlak 1009 hPa
Viditelnost 10 km a více
Polojasno ve výšce 800 ft
Oblačno až skoro zataženo ve výšce 1200 ft

METAR: LPHR 061900Z 15013KT 9999 SCT008 BKN012 18/16 Q1009

Čas: 19:25 (19:25 UTC)

Předpověď počasí

Zpráva byla vytvořena před 5 hodinami a 25 minutami, v 14:00 UTC
Předpověď platná od 06 v 15 UTC do 06 v 24 UTC
Jihojihovýchodní vítr 12 kt
Viditelnost 10 km a více
Polojasno ve výšce 1200 ft
Oblačno až skoro zataženo ve výšce 3000 ft
Změna
od 06 v 18 UTC do 06 v 21 UTC
Jihovýchodní vítr 12 kt
Viditelnost: 5000 m
Polojasno ve výšce 400 ft
Oblačno až skoro zataženo ve výšce 800 ft
slabý déšť, mrholení, kouřmo

TAF: LPHR 061400Z 0615/0624 16012KT 9999 SCT012 BKN030 BECMG 0618/0621 13012KT 5000 -RADZ BR SCT004 BKN008

Stav a předpovědi počasí z více než 4 000 letišť (zprávy METAR a TAF).

Červené a žluté tečky na mapě představují dostupné meteorologické stanice.

Když kurzor umístíte na tečku, zobrazí se název stanice.

Pak kliknutím zobrazíte stav a předpověď počasí.

Chcete-li změnit mapu, kliknutím na zelené tlačítko se znaménkem +mapu přiblížíte, kliknutím na zelené tlačítko se znaménkem – mapu oddálíte a kliknutím na zelené šipky přejdete na sousední mapy.


METAR-TAF: